Time;durP1;ratioP1;P1;durP2;ratioP2;P2;SDS_P1;SDS_P2;PMS_P1;PMS_P2;Temp;Humidity;BMP_temperature;BMP_pressure;BME280_temperature;BME280_humidity;BME280_pressure;Samples;Min_cycle;Max_cycle;Signal;HPM_P1;HPM_P2
2022/06/06 00:01:16;;;;;;;18.33;10.65;;;;;21.10;101164.00;;;;5055109;28;20199;-78
2022/06/06 00:03:44;;;;;;;15.13;9.95;;;;;21.10;101159.00;;;;5065370;28;20210;-78
2022/06/06 00:06:14;;;;;;;13.88;8.77;;;;;21.10;101156.00;;;;5067105;28;20203;-78
2022/06/06 00:08:43;;;;;;;15.32;9.52;;;;;21.00;101162.00;;;;5070628;28;20205;-78
2022/06/06 00:11:11;;;;;;;13.25;8.73;;;;;21.00;101163.00;;;;5070360;28;20214;-79
2022/06/06 00:13:43;;;;;;;13.57;9.30;;;;;21.00;101157.00;;;;5059711;28;20222;-78
2022/06/06 00:16:11;;;;;;;13.65;9.60;;;;;21.00;101155.00;;;;5054267;28;20199;-78
2022/06/06 00:18:38;;;;;;;14.73;9.07;;;;;21.00;101154.00;;;;5070737;28;20199;-78
2022/06/06 00:21:09;;;;;;;12.20;7.40;;;;;21.00;101154.00;;;;5061455;28;20221;-78
2022/06/06 00:23:38;;;;;;;13.73;9.43;;;;;21.00;101157.00;;;;5066478;28;20195;-78
2022/06/06 00:26:07;;;;;;;12.77;8.52;;;;;20.90;101159.00;;;;5057361;28;20203;-79
2022/06/06 00:28:35;;;;;;;11.75;8.57;;;;;20.90;101149.00;;;;5068078;28;20199;-77
2022/06/06 00:36:36;;;;;;;10.80;7.22;;;;;20.90;101144.00;;;;5064948;28;21029;-78
2022/06/06 00:39:05;;;;;;;12.90;8.15;;;;;20.80;101149.00;;;;5066109;28;20202;-78
2022/06/06 00:41:37;;;;;;;12.05;8.63;;;;;20.90;101156.00;;;;5062394;28;20202;-78
2022/06/06 00:44:06;;;;;;;13.80;8.88;;;;;20.90;101143.00;;;;5070056;28;20234;-78
2022/06/06 00:46:39;;;;;;;15.80;8.52;;;;;20.80;101134.00;;;;5055846;28;20203;-78
2022/06/06 00:49:09;;;;;;;13.23;8.20;;;;;20.80;101143.00;;;;5068952;28;20199;-78
2022/06/06 00:51:37;;;;;;;12.48;7.55;;;;;20.90;101128.00;;;;5069568;28;20206;-78
2022/06/06 00:54:06;;;;;;;15.15;9.57;;;;;20.90;101127.00;;;;5069577;28;20205;-78
2022/06/06 00:56:39;;;;;;;14.60;9.55;;;;;20.80;101131.00;;;;5060479;28;20580;-77
2022/06/06 00:59:12;;;;;;;13.93;7.55;;;;;20.80;101129.00;;;;5066825;28;20195;-77
2022/06/06 01:01:42;;;;;;;11.65;7.50;;;;;20.80;101131.00;;;;5060256;28;20731;-77
2022/06/06 01:04:12;;;;;;;15.57;8.93;;;;;20.80;101133.00;;;;5064997;28;20205;-78
2022/06/06 01:06:42;;;;;;;13.88;9.32;;;;;20.80;101124.00;;;;5055614;28;20192;-78
2022/06/06 01:09:11;;;;;;;15.88;8.45;;;;;20.80;101131.00;;;;5066540;28;20233;-77
2022/06/06 01:11:42;;;;;;;15.65;9.00;;;;;20.80;101132.00;;;;5063052;28;20212;-79
2022/06/06 01:14:14;;;;;;;14.48;9.38;;;;;20.80;101135.00;;;;5065223;28;20239;-77
2022/06/06 01:16:51;;;;;;;12.50;7.95;;;;;20.70;101136.00;;;;5068983;28;20290;-77
2022/06/06 01:19:42;;;;;;;12.25;8.60;;;;;20.70;101134.00;;;;5068598;28;20211;-78
2022/06/06 01:22:43;;;;;;;14.00;9.02;;;;;20.60;101142.00;;;;5064262;28;20218;-78
2022/06/06 01:25:48;;;;;;;16.98;7.68;;;;;20.60;101130.00;;;;5059685;28;20277;-78
2022/06/06 01:28:32;;;;;;;11.40;7.75;;;;;20.60;101129.00;;;;5064790;28;20256;-78
2022/06/06 01:31:06;;;;;;;14.45;8.32;;;;;20.70;101124.00;;;;5068470;28;20205;-78
2022/06/06 01:33:49;;;;;;;14.18;8.55;;;;;20.60;101127.00;;;;5068421;28;20199;-78
2022/06/06 01:36:16;;;;;;;13.95;7.80;;;;;20.70;101123.00;;;;5067699;28;20657;-78
2022/06/06 01:38:44;;;;;;;14.07;7.85;;;;;20.70;101119.00;;;;5066424;28;20198;-78
2022/06/06 01:41:13;;;;;;;13.00;8.02;;;;;20.70;101131.00;;;;5066967;28;20222;-77
2022/06/06 01:43:46;;;;;;;13.27;8.27;;;;;20.70;101135.00;;;;5068729;28;20249;-78
2022/06/06 01:46:19;;;;;;;12.48;7.15;;;;;20.70;101134.00;;;;5069209;28;20199;-78
2022/06/06 01:48:48;;;;;;;12.95;8.23;;;;;20.80;101129.00;;;;5067705;28;20206;-78
2022/06/06 01:51:18;;;;;;;12.38;8.55;;;;;20.70;101136.00;;;;5068180;28;20202;-79
2022/06/06 01:53:46;;;;;;;13.13;7.88;;;;;20.70;101125.00;;;;5067847;28;20639;-78
2022/06/06 01:56:18;;;;;;;15.20;8.65;;;;;20.70;101138.00;;;;5065901;28;20191;-77
2022/06/06 01:58:46;;;;;;;14.55;8.45;;;;;20.70;101129.00;;;;5057697;28;20192;-78
2022/06/06 02:01:15;;;;;;;11.00;7.15;;;;;20.70;101131.00;;;;5058980;28;20202;-77
2022/06/06 02:03:44;;;;;;;12.75;8.30;;;;;20.70;101132.00;;;;5067427;28;20219;-78
2022/06/06 02:06:11;;;;;;;13.00;7.45;;;;;20.70;101132.00;;;;5067122;28;20195;-77
2022/06/06 02:08:39;;;;;;;11.07;6.93;;;;;20.80;101136.00;;;;5060196;28;20545;-78
2022/06/06 02:11:06;;;;;;;12.35;7.95;;;;;20.80;101137.00;;;;5061325;28;20972;-78
2022/06/06 02:13:34;;;;;;;13.48;7.97;;;;;20.80;101128.00;;;;5054043;28;20207;-78
2022/06/06 02:16:03;;;;;;;12.85;8.13;;;;;20.80;101128.00;;;;5066943;28;20219;-77
2022/06/06 02:18:30;;;;;;;13.77;8.63;;;;;20.80;101128.00;;;;5067716;28;20554;-78
2022/06/06 02:21:00;;;;;;;11.75;8.20;;;;;20.80;101122.00;;;;5067633;28;20207;-77
2022/06/06 02:23:27;;;;;;;14.05;8.75;;;;;20.80;101121.00;;;;5067760;28;20230;-77
2022/06/06 02:25:54;;;;;;;14.48;9.40;;;;;20.80;101116.00;;;;5067864;28;20214;-77
2022/06/06 02:28:22;;;;;;;13.77;8.77;;;;;20.80;101118.00;;;;5071662;28;20191;-78
2022/06/06 02:30:49;;;;;;;14.60;8.98;;;;;20.80;101111.00;;;;5065609;28;20203;-77
2022/06/06 02:33:18;;;;;;;13.57;8.73;;;;;20.80;101117.00;;;;5061764;28;20325;-77
2022/06/06 02:35:46;;;;;;;16.52;10.27;;;;;20.80;101119.00;;;;5065983;28;20215;-78
2022/06/06 02:38:14;;;;;;;17.10;8.38;;;;;20.80;101117.00;;;;5066998;28;20195;-77
2022/06/06 02:40:44;;;;;;;12.70;8.95;;;;;20.80;101119.00;;;;5068498;28;20198;-78
2022/06/06 02:43:12;;;;;;;17.23;9.60;;;;;20.80;101109.00;;;;5052917;28;20273;-78
2022/06/06 02:45:40;;;;;;;13.18;8.48;;;;;20.80;101117.00;;;;5068783;28;20230;-77
2022/06/06 02:48:09;;;;;;;17.80;10.40;;;;;20.80;101114.00;;;;5067210;28;20207;-77
2022/06/06 02:50:39;;;;;;;14.02;8.75;;;;;20.80;101113.00;;;;5067922;28;20202;-78
2022/06/06 02:53:07;;;;;;;14.40;8.90;;;;;20.80;101113.00;;;;5068513;28;20207;-77
2022/06/06 02:55:37;;;;;;;14.02;8.45;;;;;20.80;101111.00;;;;5067433;28;20209;-77
2022/06/06 02:58:05;;;;;;;15.02;8.50;;;;;20.80;101109.00;;;;5067551;28;20680;-78
2022/06/06 03:00:34;;;;;;;13.88;8.50;;;;;20.80;101109.00;;;;5060068;28;20210;-77
2022/06/06 03:03:02;;;;;;;15.00;8.25;;;;;20.90;101105.00;;;;5063958;28;20215;-78
2022/06/06 03:05:42;;;;;;;15.10;8.57;;;;;20.80;101104.00;;;;5067018;28;20632;-78
2022/06/06 03:08:24;;;;;;;15.52;8.75;;;;;20.80;101102.00;;;;5066898;28;20207;-77
2022/06/06 03:11:03;;;;;;;15.82;9.23;;;;;20.80;101100.00;;;;5067070;28;20211;-77
2022/06/06 03:13:49;;;;;;;14.57;9.23;;;;;20.80;101106.00;;;;5066190;28;20206;-78
2022/06/06 03:22:27;;;;;;;15.45;8.65;;;;;20.80;101096.00;;;;5055290;28;20252;-78
2022/06/06 03:25:04;;;;;;;16.10;9.63;;;;;20.80;101100.00;;;;5066477;28;20199;-78
2022/06/06 03:27:44;;;;;;;18.63;9.43;;;;;20.80;101095.00;;;;5067086;28;20229;-78
2022/06/06 03:30:19;;;;;;;19.15;10.10;;;;;20.80;101106.00;;;;5067916;28;20199;-78
2022/06/06 03:32:59;;;;;;;14.20;9.23;;;;;20.80;101096.00;;;;5059779;28;20202;-78
2022/06/06 03:35:40;;;;;;;16.88;8.75;;;;;20.70;101111.00;;;;5064811;28;20736;-78
2022/06/06 03:38:17;;;;;;;16.30;8.82;;;;;20.80;101104.00;;;;5055695;28;20233;-78
2022/06/06 03:40:55;;;;;;;16.13;8.95;;;;;20.70;101099.00;;;;5066643;28;20206;-78
2022/06/06 03:43:32;;;;;;;15.38;9.52;;;;;20.80;101106.00;;;;5062794;28;20232;-78
2022/06/06 03:46:09;;;;;;;17.63;10.20;;;;;20.80;101105.00;;;;5066335;28;20209;-78
2022/06/06 03:48:52;;;;;;;17.98;10.32;;;;;20.70;101103.00;;;;5069117;28;20225;-78
2022/06/06 03:51:30;;;;;;;16.52;9.70;;;;;20.80;101106.00;;;;5067504;28;20195;-78
2022/06/06 03:54:09;;;;;;;19.08;11.23;;;;;20.80;101104.00;;;;5070914;28;20224;-78
2022/06/06 03:56:50;;;;;;;18.42;10.60;;;;;20.80;101102.00;;;;5067855;28;20191;-77
2022/06/06 03:59:19;;;;;;;17.25;9.57;;;;;20.80;101101.00;;;;5070488;28;20206;-78
2022/06/06 04:01:47;;;;;;;19.20;9.70;;;;;20.80;101105.00;;;;5066476;28;20195;-78
2022/06/06 04:04:16;;;;;;;17.35;10.48;;;;;20.80;101100.00;;;;5070120;28;20230;-78
2022/06/06 04:06:44;;;;;;;17.08;10.43;;;;;20.80;101096.00;;;;5070366;28;20210;-78
2022/06/06 04:09:13;;;;;;;21.00;10.88;;;;;20.80;101095.00;;;;5070922;28;20205;-77
2022/06/06 04:11:53;;;;;;;15.43;9.25;;;;;20.80;101099.00;;;;5067510;28;20222;-78
2022/06/06 04:14:31;;;;;;;18.67;10.10;;;;;20.80;101100.00;;;;5070176;28;20661;-78
2022/06/06 04:17:10;;;;;;;20.58;11.07;;;;;20.80;101092.00;;;;5060228;28;20195;-77
2022/06/06 04:19:47;;;;;;;17.60;10.10;;;;;20.80;101095.00;;;;5070332;28;20195;-77
2022/06/06 04:22:22;;;;;;;22.60;10.45;;;;;20.80;101099.00;;;;5069558;28;20658;-77
2022/06/06 04:25:03;;;;;;;15.27;9.10;;;;;20.80;101109.00;;;;5066826;28;20226;-78
2022/06/06 04:27:38;;;;;;;18.95;9.07;;;;;20.80;101106.00;;;;5062888;28;20206;-77
2022/06/06 04:30:13;;;;;;;16.60;9.48;;;;;20.80;101110.00;;;;5063102;28;20285;-78
2022/06/06 04:32:52;;;;;;;20.35;10.48;;;;;20.80;101109.00;;;;5068684;28;20206;-78
2022/06/06 04:35:25;;;;;;;14.98;8.68;;;;;20.80;101100.00;;;;5067687;28;20210;-77
2022/06/06 04:38:02;;;;;;;16.73;9.50;;;;;20.80;101110.00;;;;5067698;28;20203;-77
2022/06/06 04:40:40;;;;;;;16.38;10.07;;;;;20.80;101125.00;;;;5070337;28;20203;-77
2022/06/06 04:43:14;;;;;;;16.15;9.52;;;;;20.80;101112.00;;;;5069725;28;20234;-77
2022/06/06 04:45:50;;;;;;;16.30;9.75;;;;;20.80;101123.00;;;;5068168;28;20193;-77
2022/06/06 04:48:19;;;;;;;14.23;9.55;;;;;20.80;101118.00;;;;5056530;28;20248;-77
2022/06/06 04:50:47;;;;;;;18.02;10.48;;;;;20.80;101122.00;;;;5067085;28;20200;-76
2022/06/06 04:53:17;;;;;;;14.43;10.50;;;;;20.80;101118.00;;;;5067586;28;20206;-77
2022/06/06 04:55:47;;;;;;;15.48;11.38;;;;;20.80;101120.00;;;;5069351;28;20239;-76
2022/06/06 04:58:18;;;;;;;15.40;11.05;;;;;20.80;101121.00;;;;5069016;28;20199;-76
2022/06/06 05:00:46;;;;;;;16.38;10.02;;;;;20.80;101121.00;;;;5058411;28;20207;-77
2022/06/06 05:03:14;;;;;;;18.00;11.20;;;;;20.80;101133.00;;;;5066714;28;20223;-77
2022/06/06 05:05:58;;;;;;;14.98;10.20;;;;;20.70;101133.00;;;;5069119;28;20207;-77
2022/06/06 05:08:42;;;;;;;14.80;9.35;;;;;20.70;101128.00;;;;5066535;28;20218;-78
2022/06/06 05:11:27;;;;;;;13.05;9.05;;;;;20.70;101135.00;;;;5064996;28;20612;-77
2022/06/06 05:14:26;;;;;;;15.32;10.52;;;;;20.60;101138.00;;;;5053006;28;20206;-76
2022/06/06 05:17:17;;;;;;;13.98;8.95;;;;;20.60;101146.00;;;;5014763;28;20281;-77
2022/06/06 05:19:58;;;;;;;10.80;7.78;;;;;20.60;101137.00;;;;5065404;28;20203;-77
2022/06/06 05:23:05;;;;;;;10.93;8.30;;;;;20.60;101136.00;;;;5063685;28;20203;-78
2022/06/06 05:25:47;;;;;;;11.23;8.20;;;;;20.60;101136.00;;;;5024028;28;20934;-79
2022/06/06 05:28:42;;;;;;;9.50;7.47;;;;;20.60;101144.00;;;;5068423;28;20661;-80
2022/06/06 05:31:23;;;;;;;9.82;7.45;;;;;20.60;101129.00;;;;5064500;28;20195;-79
2022/06/06 05:33:56;;;;;;;8.05;6.57;;;;;20.60;101135.00;;;;5065495;28;20199;-80
2022/06/06 05:36:37;;;;;;;9.32;6.70;;;;;20.60;101133.00;;;;5056940;28;20289;-80
2022/06/06 05:39:34;;;;;;;10.52;6.10;;;;;20.60;101136.00;;;;5067030;28;20206;-80
2022/06/06 05:42:23;;;;;;;8.35;5.55;;;;;20.60;101130.00;;;;5049595;28;20230;-79
2022/06/06 05:45:01;;;;;;;7.05;5.15;;;;;20.60;101133.00;;;;5065678;28;20238;-80
2022/06/06 05:47:36;;;;;;;8.55;5.53;;;;;20.70;101134.00;;;;5062344;28;20202;-80
2022/06/06 05:50:23;;;;;;;8.02;5.65;;;;;20.60;101130.00;;;;5061725;28;20194;-81
2022/06/06 05:53:19;;;;;;;6.35;5.32;;;;;20.60;101138.00;;;;5056708;28;20198;-79
2022/06/06 05:55:59;;;;;;;7.25;5.00;;;;;20.70;101133.00;;;;5036168;28;20210;-80
2022/06/06 05:58:44;;;;;;;5.55;4.38;;;;;20.70;101137.00;;;;5055529;28;20194;-81
2022/06/06 06:01:27;;;;;;;5.10;4.57;;;;;20.70;101135.00;;;;5055089;28;20200;-80
2022/06/06 06:04:25;;;;;;;4.13;3.70;;;;;20.70;101140.00;;;;5054296;28;20227;-80
2022/06/06 06:07:03;;;;;;;6.55;4.43;;;;;20.80;101142.00;;;;5057100;28;20199;-81
2022/06/06 06:09:55;;;;;;;8.07;4.43;;;;;20.80;101140.00;;;;5060045;28;20203;-81
2022/06/06 06:12:59;;;;;;;4.05;3.38;;;;;20.80;101142.00;;;;5058209;28;20294;-80
2022/06/06 06:15:34;;;;;;;5.07;3.80;;;;;20.90;101142.00;;;;5065471;28;20211;-80
2022/06/06 06:18:09;;;;;;;4.93;4.38;;;;;21.00;101149.00;;;;5065529;28;20213;-80
2022/06/06 06:20:41;;;;;;;7.05;3.88;;;;;21.00;101148.00;;;;5069736;28;20198;-80
2022/06/06 06:23:13;;;;;;;7.47;3.85;;;;;21.00;101164.00;;;;5058382;28;20199;-79
2022/06/06 06:25:42;;;;;;;5.90;3.70;;;;;21.10;101162.00;;;;5065157;28;20939;-81
2022/06/06 06:28:11;;;;;;;5.18;3.70;;;;;21.10;101164.00;;;;5069286;28;20203;-80
2022/06/06 06:30:56;;;;;;;4.05;3.47;;;;;21.00;101148.00;;;;5066901;28;20203;-79
2022/06/06 06:33:44;;;;;;;8.10;3.53;;;;;21.00;101161.00;;;;5063212;28;20206;-78
2022/06/06 06:36:22;;;;;;;3.95;3.08;;;;;21.10;101165.00;;;;5064666;28;20210;-79
2022/06/06 06:39:08;;;;;;;6.20;3.17;;;;;21.00;101159.00;;;;5063797;28;20666;-79
2022/06/06 06:41:47;;;;;;;4.05;2.95;;;;;21.10;101162.00;;;;5061068;28;20194;-79
2022/06/06 06:44:19;;;;;;;4.15;2.80;;;;;21.20;101171.00;;;;5065988;28;20233;-78
2022/06/06 06:46:50;;;;;;;6.10;3.03;;;;;21.20;101173.00;;;;5065514;28;20203;-77
2022/06/06 06:49:34;;;;;;;4.40;2.58;;;;;21.30;101175.00;;;;5056405;28;20195;-78
2022/06/06 06:52:26;;;;;;;3.35;2.33;;;;;21.40;101185.00;;;;5049653;28;20207;-78
2022/06/06 06:55:06;;;;;;;4.32;2.88;;;;;21.40;101190.00;;;;5062474;28;20209;-77
2022/06/06 06:57:47;;;;;;;3.63;2.80;;;;;21.40;101195.00;;;;5064480;28;20198;-79
2022/06/06 07:00:18;;;;;;;4.03;2.58;;;;;21.50;101193.00;;;;5062291;28;20210;-77
2022/06/06 07:08:55;;;;;;;5.95;2.55;;;;;21.30;101196.00;;;;5063903;28;20264;-79
2022/06/06 07:12:03;;;;;;;3.35;2.40;;;;;21.30;101190.00;;;;5059619;28;20221;-79
2022/06/06 07:14:49;;;;;;;4.10;1.95;;;;;21.30;101189.00;;;;4972812;28;20991;-77
2022/06/06 07:17:20;;;;;;;2.85;1.92;;;;;21.40;101197.00;;;;4981040;28;20197;-79
2022/06/06 07:19:53;;;;;;;4.78;2.50;;;;;21.40;101204.00;;;;5042060;28;20658;-79
2022/06/06 07:22:23;;;;;;;5.13;2.50;;;;;21.40;101194.00;;;;5062565;28;20708;-79
2022/06/06 07:24:59;;;;;;;2.80;1.90;;;;;21.40;101199.00;;;;5057148;28;20234;-77
2022/06/06 07:27:27;;;;;;;3.15;2.58;;;;;21.40;101195.00;;;;5057322;28;20199;-78
2022/06/06 07:29:54;;;;;;;3.50;2.08;;;;;21.50;101191.00;;;;5063699;28;20210;-80
2022/06/06 07:32:39;;;;;;;3.80;2.13;;;;;21.50;101197.00;;;;5062070;28;20203;-80
2022/06/06 07:35:17;;;;;;;2.60;2.22;;;;;21.60;101200.00;;;;5059767;28;20203;-80
2022/06/06 07:38:08;;;;;;;5.43;2.20;;;;;21.60;101202.00;;;;5067876;28;20237;-81
2022/06/06 07:40:50;;;;;;;4.18;2.20;;;;;21.70;101206.00;;;;5071960;28;20202;-79
2022/06/06 07:43:37;;;;;;;2.75;1.70;;;;;21.70;101209.00;;;;5063112;28;20230;-79
2022/06/06 07:46:17;;;;;;;1.88;1.77;;;;;21.70;101200.00;;;;5068823;28;20285;-80
2022/06/06 07:48:56;;;;;;;4.55;1.98;;;;;21.70;101209.00;;;;5064186;28;20203;-80
2022/06/06 07:51:36;;;;;;;2.65;2.00;;;;;21.70;101214.00;;;;5070337;28;20211;-80
2022/06/06 07:54:22;;;;;;;2.10;1.95;;;;;21.70;101215.00;;;;5069676;28;20210;-78
2022/06/06 07:56:56;;;;;;;6.00;2.05;;;;;21.70;101222.00;;;;5063692;28;20206;-78
2022/06/06 07:59:36;;;;;;;2.13;1.80;;;;;21.60;101213.00;;;;5066600;28;20679;-79
2022/06/06 08:02:19;;;;;;;3.53;2.17;;;;;21.70;101213.00;;;;5068484;28;20572;-79
2022/06/06 08:04:56;;;;;;;2.63;2.00;;;;;21.70;101210.00;;;;5063904;28;20222;-79
2022/06/06 08:07:33;;;;;;;3.50;1.70;;;;;21.70;101203.00;;;;5065434;28;20208;-81
2022/06/06 08:10:16;;;;;;;4.50;2.10;;;;;21.80;101206.00;;;;5069279;28;20215;-81
2022/06/06 08:13:03;;;;;;;5.85;2.22;;;;;21.80;101193.00;;;;5053894;28;20195;-81
2022/06/06 08:15:41;;;;;;;2.17;1.90;;;;;22.00;101206.00;;;;5062287;28;20199;-79
2022/06/06 08:18:30;;;;;;;2.45;1.42;;;;;22.00;101208.00;;;;5066635;28;20202;-80
2022/06/06 08:21:03;;;;;;;1.85;1.75;;;;;22.20;101203.00;;;;5066584;28;20578;-80
2022/06/06 08:23:34;;;;;;;1.65;1.50;;;;;22.20;101205.00;;;;5066306;28;20191;-78
2022/06/06 08:26:04;;;;;;;7.18;1.90;;;;;22.30;101196.00;;;;5053859;28;20234;-79
2022/06/06 08:28:33;;;;;;;2.88;2.00;;;;;22.50;101204.00;;;;5065842;28;20195;-82
2022/06/06 08:31:00;;;;;;;2.38;2.00;;;;;22.60;101195.00;;;;5066980;28;20222;-79
2022/06/06 08:33:28;;;;;;;4.93;1.85;;;;;22.70;101193.00;;;;5065664;28;20199;-79
2022/06/06 08:36:07;;;;;;;3.10;2.08;;;;;22.80;101194.00;;;;5069517;28;20199;-79
2022/06/06 08:38:46;;;;;;;5.47;2.30;;;;;22.90;101187.00;;;;5064779;28;20203;-78
2022/06/06 08:41:35;;;;;;;3.17;1.58;;;;;23.00;101185.00;;;;5069468;28;20206;-79
2022/06/06 08:44:14;;;;;;;3.03;1.63;;;;;23.20;101186.00;;;;5052797;28;20223;-80
2022/06/06 08:46:50;;;;;;;2.35;1.88;;;;;23.30;101189.00;;;;5065553;28;20202;-78
2022/06/06 08:52:44;;;;;;;2.90;1.65;;;;;23.20;101194.00;;;;5070721;28;20336;-81
2022/06/06 08:55:37;;;;;;;1.40;1.30;;;;;23.10;101189.00;;;;5073749;28;20567;-79
2022/06/06 08:58:44;;;;;;;2.88;1.48;;;;;23.10;101194.00;;;;5071500;28;20215;-78
2022/06/06 09:01:29;;;;;;;1.50;1.38;;;;;23.10;101196.00;;;;5063210;28;20210;-79
2022/06/06 09:04:24;;;;;;;3.55;1.30;;;;;23.10;101190.00;;;;5073506;28;20214;-77
2022/06/06 09:07:17;;;;;;;1.77;1.10;;;;;23.20;101192.00;;;;5060165;28;20217;-78
2022/06/06 09:10:09;;;;;;;1.30;1.20;;;;;23.30;101183.00;;;;5070639;28;20207;-78
2022/06/06 09:13:18;;;;;;;2.35;1.00;;;;;23.40;101181.00;;;;5065260;28;20199;-79
2022/06/06 09:16:24;;;;;;;1.80;1.02;;;;;23.50;101190.00;;;;5073329;28;20253;-79
2022/06/06 09:19:38;;;;;;;2.95;1.00;;;;;23.60;101179.00;;;;5043578;28;20202;-78
2022/06/06 09:22:32;;;;;;;3.05;1.33;;;;;23.80;101191.00;;;;4988782;28;20206;-79
2022/06/06 09:25:23;;;;;;;1.67;1.10;;;;;23.90;101186.00;;;;4971570;28;20229;-79
2022/06/06 09:28:27;;;;;;;1.30;0.98;;;;;23.90;101187.00;;;;5055651;28;20241;-78
2022/06/06 09:31:24;;;;;;;2.25;0.80;;;;;23.90;101179.00;;;;5065972;28;20588;-79
2022/06/06 09:34:30;;;;;;;1.42;0.80;;;;;23.90;101190.00;;;;5071944;28;20585;-78
2022/06/06 09:37:17;;;;;;;2.25;0.85;;;;;24.00;101184.00;;;;4993244;28;20202;-77
2022/06/06 09:39:56;;;;;;;1.17;0.70;;;;;24.10;101174.00;;;;5068111;28;20206;-79
2022/06/06 09:42:38;;;;;;;3.70;0.73;;;;;24.10;101177.00;;;;5051844;28;20227;-78
2022/06/06 09:45:31;;;;;;;3.05;1.67;;;;;24.20;101181.00;;;;5060433;28;20300;-78
2022/06/06 09:48:52;;;;;;;0.85;0.50;;;;;24.20;101185.00;;;;5054290;28;20698;-78
2022/06/06 09:52:01;;;;;;;1.88;0.65;;;;;24.20;101172.00;;;;4988320;28;20205;-78
2022/06/06 10:01:55;;;;;;;3.75;1.02;;;;;24.50;101156.00;;;;5059327;28;20234;-79
2022/06/06 10:04:56;;;;;;;0.73;0.63;;;;;24.60;101163.00;;;;5056066;28;20211;-78
2022/06/06 10:08:03;;;;;;;2.63;0.90;;;;;24.60;101160.00;;;;5069388;28;20206;-79
2022/06/06 10:11:12;;;;;;;1.27;0.80;;;;;24.60;101164.00;;;;5070717;28;20226;-78
2022/06/06 10:13:57;;;;;;;0.77;0.60;;;;;24.70;101155.00;;;;5066940;28;20199;-79
2022/06/06 10:16:55;;;;;;;5.45;1.10;;;;;24.80;101146.00;;;;5051451;28;20576;-79
2022/06/06 10:19:41;;;;;;;1.52;0.77;;;;;24.90;101161.00;;;;5049759;28;20191;-78
2022/06/06 10:22:31;;;;;;;0.70;0.60;;;;;24.80;101169.00;;;;5049823;28;20202;-79
2022/06/06 10:25:24;;;;;;;4.65;0.85;;;;;24.70;101177.00;;;;5061099;28;20230;-78
2022/06/06 10:28:11;;;;;;;1.08;0.68;;;;;24.70;101175.00;;;;5048316;28;20199;-78
2022/06/06 10:30:55;;;;;;;1.88;0.70;;;;;24.60;101160.00;;;;5060409;28;20191;-78
2022/06/06 10:33:52;;;;;;;1.52;0.65;;;;;24.50;101164.00;;;;5062776;28;20199;-78
2022/06/06 10:36:49;;;;;;;2.65;0.93;;;;;24.50;101162.00;;;;5069250;28;20202;-79
2022/06/06 10:39:54;;;;;;;2.30;0.90;;;;;24.40;101144.00;;;;5069531;28;20206;-77
2022/06/06 10:42:48;;;;;;;3.67;0.85;;;;;24.50;101148.00;;;;5050393;28;20239;-77
2022/06/06 10:45:28;;;;;;;1.33;0.77;;;;;24.60;101147.00;;;;5053676;28;20211;-76
2022/06/06 10:48:29;;;;;;;3.22;0.70;;;;;24.60;101144.00;;;;5050448;28;20199;-77
2022/06/06 10:51:40;;;;;;;0.80;0.80;;;;;24.60;101139.00;;;;5062797;28;20641;-77
2022/06/06 10:54:58;;;;;;;1.02;0.80;;;;;24.50;101151.00;;;;5059148;28;20215;-77
2022/06/06 10:58:03;;;;;;;0.82;0.52;;;;;24.40;101146.00;;;;5053987;28;20202;-76
2022/06/06 11:00:50;;;;;;;1.35;0.80;;;;;24.40;101155.00;;;;5064002;28;20577;-76
2022/06/06 11:03:36;;;;;;;1.33;0.77;;;;;24.30;101164.00;;;;5067683;28;20202;-76
2022/06/06 11:06:44;;;;;;;1.33;0.70;;;;;24.10;101213.00;;;;5063877;28;20232;-77
2022/06/06 11:09:28;;;;;;;2.15;0.60;;;;;24.00;101221.00;;;;5069663;28;20676;-77
2022/06/06 11:12:31;;;;;;;1.67;0.75;;;;;23.80;101206.00;;;;5064009;28;20998;-77
2022/06/06 11:15:01;;;;;;;0.80;0.65;;;;;23.70;101189.00;;;;5065979;28;20684;-79
2022/06/06 11:18:09;;;;;;;1.23;0.90;;;;;23.40;101181.00;;;;5059669;28;20203;-78
2022/06/06 11:21:11;;;;;;;3.30;0.80;;;;;23.30;101172.00;;;;5051240;28;20201;-77
2022/06/06 11:23:47;;;;;;;1.08;0.60;;;;;23.30;101173.00;;;;5065164;28;20227;-77
2022/06/06 11:26:41;;;;;;;3.60;0.77;;;;;23.20;101165.00;;;;5051557;28;20234;-78
2022/06/06 11:29:48;;;;;;;2.10;0.88;;;;;23.20;101153.00;;;;5064126;28;20202;-79
2022/06/06 11:32:52;;;;;;;3.85;0.90;;;;;23.30;101153.00;;;;5051006;28;20736;-79
2022/06/06 11:35:45;;;;;;;1.65;0.93;;;;;23.30;101151.00;;;;5067593;28;20201;-79
2022/06/06 11:38:46;;;;;;;3.92;1.25;;;;;23.30;101144.00;;;;5064940;28;20192;-78
2022/06/06 11:41:35;;;;;;;3.72;1.60;;;;;23.30;101138.00;;;;5062925;28;20194;-79
2022/06/06 11:44:13;;;;;;;1.25;0.93;;;;;23.40;101137.00;;;;5066856;28;20231;-79
2022/06/06 11:47:22;;;;;;;2.60;1.00;;;;;23.30;101134.00;;;;5070880;28;20227;-78
2022/06/06 11:50:26;;;;;;;1.30;1.08;;;;;23.30;101141.00;;;;5068143;28;20270;-79
2022/06/06 11:53:37;;;;;;;2.97;0.90;;;;;23.20;101146.00;;;;5030865;28;20661;-80
2022/06/06 11:56:16;;;;;;;1.20;0.80;;;;;23.20;101142.00;;;;5042172;28;20660;-79
2022/06/06 11:59:30;;;;;;;2.28;1.25;;;;;23.00;101133.00;;;;5059454;28;20195;-80
2022/06/06 12:02:40;;;;;;;0.90;0.90;;;;;22.90;101150.00;;;;5005087;28;20201;-77
2022/06/06 12:05:28;;;;;;;2.35;1.15;;;;;22.80;101175.00;;;;5038251;28;20219;-78
2022/06/06 12:08:38;;;;;;;2.35;0.98;;;;;22.70;101162.00;;;;5067736;28;20210;-78
2022/06/06 12:11:36;;;;;;;1.25;0.90;;;;;22.60;101172.00;;;;5067607;28;20214;-78
2022/06/06 12:14:32;;;;;;;1.90;1.08;;;;;22.50;101171.00;;;;5070872;28;20575;-78
2022/06/06 12:17:09;;;;;;;1.30;1.20;;;;;22.40;101172.00;;;;5056411;28;20242;-77
2022/06/06 12:19:55;;;;;;;1.67;1.20;;;;;22.30;101161.00;;;;5051396;28;20202;-77
2022/06/06 12:22:38;;;;;;;2.03;1.40;;;;;22.20;101158.00;;;;5052200;28;20210;-77
2022/06/06 12:25:37;;;;;;;1.05;0.95;;;;;22.10;101155.00;;;;5061005;28;20225;-77
2022/06/06 12:28:48;;;;;;;1.00;0.90;;;;;22.00;101148.00;;;;5052188;28;20211;-78
2022/06/06 12:31:36;;;;;;;1.77;1.05;;;;;22.00;101144.00;;;;4988476;28;20209;-78
2022/06/06 12:34:10;;;;;;;1.52;1.20;;;;;22.00;101144.00;;;;5063683;28;20206;-78
2022/06/06 12:36:48;;;;;;;2.10;1.20;;;;;22.00;101138.00;;;;5069346;28;20199;-78
2022/06/06 12:39:23;;;;;;;2.20;1.40;;;;;22.00;101135.00;;;;5051623;28;20693;-77
2022/06/06 12:42:04;;;;;;;2.20;1.20;;;;;22.00;101139.00;;;;5068967;28;20203;-78
2022/06/06 12:45:13;;;;;;;1.48;1.38;;;;;21.90;101126.00;;;;5070506;28;20206;-77
2022/06/06 12:48:03;;;;;;;1.77;1.02;;;;;22.00;101130.00;;;;5067365;28;20202;-77
2022/06/06 12:50:49;;;;;;;1.38;1.27;;;;;21.90;101130.00;;;;5068850;28;20194;-79
2022/06/06 12:53:34;;;;;;;6.72;1.15;;;;;21.90;101133.00;;;;5064116;28;20729;-79
2022/06/06 12:56:24;;;;;;;2.72;1.48;;;;;21.80;101125.00;;;;5059256;28;20199;-77
2022/06/06 12:59:09;;;;;;;1.55;1.40;;;;;21.80;101132.00;;;;5069521;28;20190;-80
2022/06/06 13:01:46;;;;;;;2.63;1.63;;;;;21.80;101133.00;;;;5069602;28;20199;-78
2022/06/06 13:04:52;;;;;;;2.15;1.70;;;;;21.70;101122.00;;;;5070671;28;20198;-78
2022/06/06 13:07:35;;;;;;;2.45;1.77;;;;;21.70;101120.00;;;;5047630;28;20230;-77
2022/06/06 13:10:25;;;;;;;1.50;1.25;;;;;21.70;101119.00;;;;5068413;28;20210;-78
2022/06/06 13:13:23;;;;;;;3.10;1.60;;;;;21.70;101116.00;;;;5064449;28;20203;-78
2022/06/06 13:15:59;;;;;;;1.88;1.58;;;;;21.70;101119.00;;;;5070246;28;20207;-78
2022/06/06 13:18:52;;;;;;;2.63;1.58;;;;;21.60;101126.00;;;;5067250;28;20198;-78
2022/06/06 13:21:28;;;;;;;4.47;1.88;;;;;21.60;101118.00;;;;5069058;28;20207;-78
2022/06/06 13:24:39;;;;;;;1.70;1.60;;;;;21.50;101133.00;;;;5063761;28;20196;-78
2022/06/06 13:27:26;;;;;;;2.08;1.88;;;;;21.40;101131.00;;;;5024093;28;20226;-78
2022/06/06 13:29:54;;;;;;;2.60;1.90;;;;;21.50;101127.00;;;;5070040;28;20198;-77
2022/06/06 13:32:41;;;;;;;4.50;2.00;;;;;21.40;101124.00;;;;5069439;28;20206;-77
2022/06/06 13:35:19;;;;;;;3.08;1.80;;;;;21.30;101128.00;;;;5069600;28;20191;-76
2022/06/06 13:38:01;;;;;;;1.85;1.70;;;;;21.30;101125.00;;;;5069077;28;20195;-78
2022/06/06 13:40:49;;;;;;;1.48;1.38;;;;;21.10;101130.00;;;;5060984;28;20200;-77
2022/06/06 13:43:52;;;;;;;2.95;1.90;;;;;21.10;101117.00;;;;5106738;27;20557;-76